Flight Track Log - Related Links

Times and Time Zones

All times are in EDT time to prevent confusion due to time zone crossing. See the ASQ5685 flight status page for this flight to view local times or setup timezone preferences in your user account.

Time Position Orientation Groundspeed Altitude Reporting Facility
EDT Latitude Longitude Course Direction KTS km/h meters Rate Location/Type
Sat 09:24:03 33.6333 -84.3833 53° Northeast 170 315 823  Level Atlanta TRACON
Sat 09:24:57 33.6333 -84.3167 90° East 209 388 1,463 671 Climbing Atlanta TRACON
Sat 09:26:00 33.7649 -83.9531 54° Northeast  Level FlightAware Approximate
Sat 09:26:03 33.6333 -84.2333 90° East 251 465 2,164  Level Atlanta TRACON
Sat 09:26:57 33.6333 -84.1500 90° East 281 520 2,713 621 Climbing Atlanta TRACON
Sat 09:27:00 33.8253 -83.8525 54° Northeast  Level FlightAware Approximate
Sat 09:27:49 33.6564 -84.0689 71° East 285 528 3,261  Level Atlanta Center
Sat 09:28:00 33.8883 -83.7545 48° Northeast  Level FlightAware Approximate
Sat 09:28:49 33.7211 -83.9864 47° Northeast 301 557 3,597  Level Atlanta Center
Sat 09:29:00 33.9532 -83.6582 53° Northeast  Level FlightAware Approximate
Sat 09:29:49 33.7900 -83.8964 47° Northeast 343 636 3,962  Level Atlanta Center
Sat 09:30:49 33.8628 -83.8061 46° Northeast 365 676 4,450 396 Climbing Atlanta Center
Sat 09:31:49 33.9358 -83.7083 48° Northeast 378 700 4,755 335 Climbing Atlanta Center
Sat 09:32:49 33.9981 -83.6053 54° Northeast 378 700 5,121 351 Climbing Atlanta Center
Sat 09:33:49 34.0622 -83.5072 52° Northeast 378 700 5,456 320 Climbing Atlanta Center
Sat 09:34:49 34.1267 -83.4039 53° Northeast 378 700 5,761 290 Climbing Atlanta Center
Sat 09:35:49 34.1928 -83.3031 52° Northeast 378 700 6,035 244 Climbing Atlanta Center
Sat 09:36:49 34.2506 -83.2069 54° Northeast 384 711 6,248 229 Climbing Atlanta Center
Sat 09:37:49 34.3186 -83.0981 53° Northeast 394 729 6,492 244 Climbing Atlanta Center
Sat 09:38:49 34.3886 -82.9867 53° Northeast 394 729 6,736 244 Climbing Atlanta Center
Sat 09:39:49 34.4544 -82.8725 55° Northeast 406 752 6,980 259 Climbing Atlanta Center
Sat 09:40:49 34.5306 -82.7606 50° Northeast 422 782 7,254 259 Climbing Atlanta Center
Sat 09:41:49 34.5983 -82.6458 54° Northeast 415 769 7,498 229 Climbing Atlanta Center
Sat 09:42:49 34.6658 -82.5361 53° Northeast 415 769 7,711 229 Climbing Atlanta Center
Sat 09:43:49 34.7353 -82.4236 53° Northeast 415 769 7,955 198 Climbing Atlanta Center
Sat 09:44:49 34.8047 -82.3033 55° Northeast 415 769 8,108 152 Climbing Atlanta Center
Sat 09:45:49 34.8761 -82.1906 52° Northeast 415 769 8,260 168 Climbing Atlanta Center
Sat 09:46:49 34.9575 -82.0594 53° Northeast 421 779 8,443 168 Climbing Atlanta Center
Sat 09:47:49 35.0264 -81.9436 54° Northeast 426 789 8,595 152 Climbing Atlanta Center
Sat 09:48:49 35.0931 -81.8203 57° Northeast 433 801 8,748 152 Climbing Atlanta Center
Sat 09:49:49 35.1575 -81.6964 58° Northeast 428 793 8,900 152 Climbing Atlanta Center
Sat 09:50:49 35.2219 -81.5725 57° Northeast 428 793 9,053 152 Climbing Atlanta Center
Sat 09:51:49 35.2861 -81.4486 58° Northeast 422 782 9,205 152 Climbing Atlanta Center
Sat 09:52:49 35.3525 -81.3269 56° Northeast 422 782 9,357 122 Climbing Atlanta Center
Sat 09:53:49 35.4142 -81.2025 59° Northeast 422 782 9,449 46 Climbing Atlanta Center
Sat 09:54:49 35.4803 -81.0778 57° Northeast 427 790 9,449  Level Atlanta Center
Sat 09:55:49 35.5458 -80.9503 58° Northeast 432 800 9,449  Level Atlanta Center
Sat 09:56:49 35.6136 -80.8225 57° Northeast 438 811 9,449  Level Atlanta Center
Sat 09:57:49 35.6811 -80.6922 57° Northeast 438 811 9,449  Level Atlanta Center
Sat 10:00:02 35.8256 -80.4056 58° Northeast 455 843 9,449  Level Washington Center
Sat 10:01:01 35.8933 -80.2764 57° Northeast 455 843 9,449  Level Washington Center
Sat 10:02:02 35.9608 -80.1444 58° Northeast 450 834 9,449  Level Washington Center
Sat 10:03:02 36.0194 -80.0297 58° Northeast 443 821 9,449  Level Washington Center
Sat 10:04:03 36.0978 -79.8900 55° Northeast 443 821 9,449  Level Washington Center
Sat 10:05:03 36.1711 -79.7578 55° Northeast 449 832 9,449  Level Washington Center
Sat 10:06:03 36.2356 -79.6428 55° Northeast 458 848 9,449 -31 Level Washington Center
Sat 10:07:02 36.3133 -79.4997 56° Northeast 453 838 9,388 -138 Descending Washington Center
Sat 10:08:02 36.3772 -79.3972 52° Northeast 453 838 9,174 -317 Descending Washington Center
Sat 10:09:03 36.4528 -79.2511 57° Northeast 460 851 8,748 -393 Descending Washington Center
Sat 10:10:03 36.5383 -79.1078 53° Northeast 460 851 8,382 -369 Descending Washington Center
Sat 10:11:02 36.6111 -78.9764 55° Northeast 460 851 8,016 -381 Descending Washington Center
Sat 10:12:03 36.6817 -78.8422 57° Northeast 454 840 7,620 -197 Descending Washington Center
Sat 10:13:03 36.7494 -78.7208 55° Northeast 448 830 7,620  Level Washington Center
Sat 10:14:02 36.8172 -78.6014 55° Northeast 430 797 7,620  Level Washington Center
Sat 10:15:02 36.8786 -78.4819 57° Northeast 424 785 7,620 -106 Level Washington Center
Sat 10:16:03 36.9536 -78.3936 43° Northeast 407 753 7,407 -272 Descending Washington Center
Sat 10:17:03 37.0497 -78.2983 38° Northeast 414 766 7,071 -338 Descending Washington Center
Sat 10:18:02 37.1500 -78.2028 37° Northeast 430 797 6,736 -335 Descending Washington Center
Sat 10:19:03 37.2522 -78.1019 38° Northeast 430 797 6,401 -166 Descending Washington Center
Sat 10:20:03 37.3436 -78.0136 38° Northeast 425 787 6,401  Level Washington Center
Sat 10:21:02 37.4353 -77.9222 38° Northeast 425 787 6,401  Level Washington Center
Sat 10:22:02 37.5267 -77.8308 38° Northeast 425 787 6,401  Level Washington Center
Sat 10:23:03 37.6322 -77.7683 25° Northeast 419 776 6,401 -242 Level Washington Center
Sat 10:24:03 37.7353 -77.7083 25° Northeast 413 764 5,913 -543 Descending Washington Center
Sat 10:25:01 37.8344 -77.6506 25° Northeast 403 747 5,334 -666 Descending Washington Center
Sat 10:26:01 37.9269 -77.5978 24° Northeast 392 726 4,602 -725 Descending Washington Center
Sat 10:27:02 38.0136 -77.5422 27° Northeast 363 673 3,871 -686 Descending Washington Center
Sat 10:28:01 38.0933 -77.5019 22° Northeast 337 624 3,231 -415 Descending Washington Center
Sat 10:29:01 38.1714 -77.4536 26° Northeast 330 612 3,048 -76 Descending Washington Center
Sat 10:30:02 38.2428 -77.4133 24° Northeast 297 550 3,078 15 Climbing Washington Center
Sat 10:31:03 38.3122 -77.3700 26° Northeast 281 520 3,078 -135 Level Washington Center
Sat 10:32:04 38.3897 -77.3558 North 276 512 2,804 -372 Descending Washington Center
Sat 10:33:01 38.4667 -77.3603 357° North 271 502 2,347 -469 Descending Washington Center
Sat 10:34:01 38.5417 -77.3647 357° North 271 502 1,890 -468 Descending Washington Center
Sat 10:35:02 38.6147 -77.3667 359° North 271 502 1,402 -516 Descending Washington Center
Sat 10:35:19 38.6500 -77.3667 360° North 264 489 1,219 -143 Descending Potomac TRACON
Sat 10:36:19 38.7167 -77.3667 360° North 268 496 1,219  Level Potomac TRACON
Sat 10:37:19 38.8000 -77.3500 North 274 507 1,219  Level Potomac TRACON
Sat 10:38:19 38.8667 -77.3500 360° North 266 492 1,219 -128 Level Potomac TRACON
Sat 10:39:13 38.9333 -77.3500 360° North 261 483 975 -321 Descending Potomac TRACON
Sat 10:40:13 39.0000 -77.3500 360° North 240 444 610 -174 Descending Potomac TRACON
Sat 10:41:19 39.0500 -77.3833 333° Northwest 198 367 610 -15 Level Potomac TRACON
Sat 10:42:13 39.0333 -77.4333 247° West 188 348 579 -169 Descending Potomac TRACON
Sat 10:43:07 38.9833 -77.4333 180° South 150 278 305 -305 Descending Potomac TRACON
Sat 10:45:00 38.9474 -77.4599 195° South  Level Estimated
Sat 10:52:00 38.9474 -77.4599 195° South  Level Estimated
Sat 10:53:00 38.9474 -77.4599 195° South  Level Estimated
Sat 10:54:00 38.9474 -77.4599 195° South  Level Estimated
Sat 10:55:00 38.9474 -77.4599 195° South  Level Estimated

Login

Don't have an account? Register now (free) for customized features, flight alerts, and more!